Thunder radar more information blitzortung!


Radar de pluja more information rain snow radar


Visita la nostra xarxa de llocs de meteo:

Template documentation
and downloads

And another site



No particular awareness of the weather is required.    There are no Weather-warnings

Pagina Historial Weather Underground text

Diari Resum Juny 17, 2016 Unitats:  Mètric    Imperial   Tant
« Previous Dia
SegĂźent Dia »
Diari Setmana Mensual Anual Personalitzada
  Maxima: Minima: Media:
Temperatura: 26.0 °C 14.1 °C 20.4 °C
Punt de rosada: 13.4 °C 5.4 °C 9.7 °C
Humitat: 67 % 32 % 51 %
Wind Speed: 15.6 km/h 0.0 km/h 4.5 km/h
RĂ fegues de vent: 15.6 km/h - -
Vent:- - SSW
Pression baro: 1018.8 hPa 1011.7 hPa -
Precipitacions: 0.0 mm    
Historical Graphs
 
 
Dades de taula per Juny 17, 2016
Temps Temperatura Punt de rosada Pression baro Vent Wind Speed RĂ fegues de vent Humitat Rainfall Rate (Hourly)
00:05 14.7 °C 5.7 °C 1011.7 hPa ESE 4.8 km/h 9.7 km/h 55 % 0.0 mm
00:15 14.7 °C 5.7 °C 1011.7 hPa ESE 4.8 km/h 9.7 km/h 55 % 0.0 mm
00:25 14.5 °C 5.6 °C 1011.7 hPa ESE 4.8 km/h 9.7 km/h 55 % 0.0 mm
00:35 14.4 °C 5.7 °C 1011.7 hPa ESE 4.8 km/h 9.7 km/h 56 % 0.0 mm
00:45 14.1 °C 5.4 °C 1011.7 hPa ESE 4.8 km/h 9.7 km/h 56 % 0.0 mm
00:55 14.2 °C 5.8 °C 1011.7 hPa ESE 4.8 km/h 9.7 km/h 57 % 0.0 mm
01:05 14.2 °C 5.8 °C 1011.7 hPa ESE 4.8 km/h 9.7 km/h 57 % 0.0 mm
01:15 14.2 °C 5.8 °C 1011.7 hPa ESE 4.8 km/h 9.7 km/h 57 % 0.0 mm
01:25 14.2 °C 5.8 °C 1011.7 hPa ESE 4.8 km/h 9.7 km/h 57 % 0.0 mm
01:35 14.1 °C 5.7 °C 1011.7 hPa ESE 4.8 km/h 9.7 km/h 57 % 0.0 mm
01:45 14.1 °C 5.9 °C 1011.7 hPa ESE 4.8 km/h 9.7 km/h 58 % 0.0 mm
01:55 14.4 °C 6.2 °C 1011.7 hPa ESE 4.8 km/h 9.7 km/h 58 % 0.0 mm
02:05 14.6 °C 6.4 °C 1012.8 hPa ESE 4.8 km/h 9.7 km/h 58 % 0.0 mm
02:15 14.9 °C 6.7 °C 1012.8 hPa ESE 4.8 km/h 9.7 km/h 58 % 0.0 mm
02:25 15.2 °C 6.7 °C 1012.8 hPa ESE 4.8 km/h 9.7 km/h 57 % 0.0 mm
02:35 15.4 °C 6.9 °C 1012.8 hPa ESE 4.8 km/h 9.7 km/h 57 % 0.0 mm
02:45 15.7 °C 7.2 °C 1012.8 hPa ESE 4.8 km/h 9.7 km/h 57 % 0.0 mm
02:55 16.0 °C 7.5 °C 1012.8 hPa ESE 4.8 km/h 9.7 km/h 57 % 0.0 mm
03:05 16.6 °C 7.8 °C 1013.8 hPa ESE 4.8 km/h 9.7 km/h 56 % 0.0 mm
03:15 16.4 °C 7.6 °C 1013.8 hPa ESE 4.8 km/h 9.7 km/h 56 % 0.0 mm
03:25 16.3 °C 7.5 °C 1013.8 hPa ESE 4.8 km/h 9.7 km/h 56 % 0.0 mm
03:35 16.4 °C 7.6 °C 1012.8 hPa ESE 4.8 km/h 9.7 km/h 56 % 0.0 mm
03:45 17.2 °C 7.8 °C 1013.8 hPa ESE 4.8 km/h 9.7 km/h 54 % 0.0 mm
03:55 17.9 °C 8.4 °C 1013.8 hPa ESE 4.8 km/h 9.7 km/h 54 % 0.0 mm
04:05 18.4 °C 8.7 °C 1013.8 hPa ESE 4.8 km/h 9.7 km/h 53 % 0.0 mm
04:15 18.7 °C 8.6 °C 1014.8 hPa ESE 4.8 km/h 9.7 km/h 52 % 0.0 mm
04:25 19.2 °C 8.8 °C 1014.8 hPa ESE 4.8 km/h 9.7 km/h 51 % 0.0 mm
04:35 19.2 °C 8.8 °C 1013.8 hPa ESE 4.8 km/h 9.7 km/h 51 % 0.0 mm
04:45 19.1 °C 8.4 °C 1013.8 hPa ESE 4.8 km/h 9.7 km/h 50 % 0.0 mm
05:05 20.4 °C 9.6 °C 1013.8 hPa ESE 4.8 km/h 9.7 km/h 50 % 0.0 mm
05:15 20.6 °C 9.2 °C 1013.8 hPa ESE 4.8 km/h 9.7 km/h 48 % 0.0 mm
05:25 21.2 °C 9.7 °C 1013.8 hPa ESE 4.8 km/h 9.7 km/h 48 % 0.0 mm
05:35 21.0 °C 8.9 °C 1014.8 hPa ESE 4.8 km/h 9.7 km/h 46 % 0.0 mm
05:45 21.1 °C 8.4 °C 1013.8 hPa ESE 4.8 km/h 9.7 km/h 44 % 0.0 mm
10:50 21.2 °C 8.4 °C 1013.8 hPa WSW 9.3 km/h 9.3 km/h 44 % 0.0 mm
10:55 21.7 °C 8.9 °C 1013.8 hPa WSW 4.2 km/h 4.7 km/h 44 % 0.0 mm
11:00 21.6 °C 8.5 °C 1014.8 hPa WSW 4.2 km/h 4.7 km/h 43 % 0.0 mm
11:05 21.7 °C 8.6 °C 1014.8 hPa WSW 4.2 km/h 4.7 km/h 43 % 0.0 mm
11:15 22.6 °C 9.4 °C 1014.8 hPa WSW 4.2 km/h 4.7 km/h 43 % 0.0 mm
11:20 22.5 °C 8.9 °C 1014.8 hPa WSW 4.2 km/h 4.7 km/h 42 % 0.0 mm
11:25 22.2 °C 8.3 °C 1014.8 hPa WSW 4.2 km/h 4.7 km/h 41 % 0.0 mm
11:30 22.2 °C 8.3 °C 1014.8 hPa WSW 4.2 km/h 4.7 km/h 41 % 0.0 mm
11:35 22.4 °C 8.5 °C 1014.8 hPa WSW 4.2 km/h 4.7 km/h 41 % 0.0 mm
11:40 23.0 °C 8.7 °C 1014.8 hPa WSW 4.2 km/h 4.7 km/h 40 % 0.0 mm
11:45 23.9 °C 9.5 °C 1014.8 hPa WSW 4.2 km/h 4.7 km/h 40 % 0.0 mm
11:50 24.1 °C 9.7 °C 1014.8 hPa WSW 4.2 km/h 4.7 km/h 40 % 0.0 mm
11:55 23.7 °C 8.6 °C 1014.8 hPa WSW 4.2 km/h 4.7 km/h 38 % 0.0 mm
12:00 23.7 °C 8.6 °C 1014.8 hPa WSW 4.2 km/h 4.7 km/h 38 % 0.0 mm
12:05 23.5 °C 7.9 °C 1014.8 hPa WSW 4.2 km/h 4.7 km/h 37 % 0.0 mm
12:10 23.4 °C 7.9 °C 1014.8 hPa WSW 4.2 km/h 4.7 km/h 37 % 0.0 mm
12:15 23.5 °C 7.9 °C 1014.8 hPa WSW 4.2 km/h 4.7 km/h 37 % 0.0 mm
12:20 23.6 °C 8.1 °C 1014.8 hPa WSW 4.2 km/h 4.7 km/h 37 % 0.0 mm
12:25 24.3 °C 8.7 °C 1014.8 hPa WSW 4.2 km/h 4.7 km/h 37 % 0.0 mm
12:30 24.6 °C 8.6 °C 1014.8 hPa WSW 4.2 km/h 4.7 km/h 36 % 0.0 mm
12:35 25.1 °C 8.6 °C 1014.8 hPa WSW 4.2 km/h 4.7 km/h 35 % 0.0 mm
12:40 25.0 °C 8.1 °C 1014.8 hPa WSW 4.2 km/h 4.7 km/h 34 % 0.0 mm
12:45 24.9 °C 7.9 °C 1014.8 hPa WSW 4.2 km/h 4.7 km/h 34 % 0.0 mm
12:50 24.3 °C 7.0 °C 1014.8 hPa WSW 4.2 km/h 4.7 km/h 33 % 0.0 mm
12:55 24.9 °C 7.9 °C 1014.8 hPa WSW 4.2 km/h 4.7 km/h 34 % 0.0 mm
13:00 25.6 °C 7.7 °C 1014.8 hPa WSW 4.2 km/h 4.7 km/h 32 % 0.0 mm
13:05 26.0 °C 8.0 °C 1014.8 hPa WSW 4.2 km/h 4.7 km/h 32 % 0.0 mm
13:10 25.3 °C 9.2 °C 1014.8 hPa WSW 4.2 km/h 4.7 km/h 36 % 0.0 mm
13:15 24.3 °C 9.4 °C 1014.8 hPa WSW 4.2 km/h 4.7 km/h 39 % 0.0 mm
13:25 25.0 °C 8.4 °C 1014.8 hPa WSW 4.2 km/h 4.7 km/h 35 % 0.0 mm
13:30 24.4 °C 9.6 °C 1014.8 hPa WSW 4.2 km/h 4.7 km/h 39 % 0.0 mm
13:35 24.5 °C 10.4 °C 1014.8 hPa WSW 4.2 km/h 4.7 km/h 41 % 0.0 mm
13:40 23.9 °C 10.2 °C 1014.8 hPa WSW 4.2 km/h 4.7 km/h 42 % 0.0 mm
13:45 23.4 °C 10.4 °C 1014.8 hPa WSW 4.2 km/h 4.7 km/h 44 % 0.0 mm
13:50 22.2 °C 10.0 °C 1014.8 hPa WSW 4.2 km/h 4.7 km/h 46 % 0.0 mm
13:55 21.7 °C 10.2 °C 1014.8 hPa WSW 4.2 km/h 4.7 km/h 48 % 0.0 mm
14:00 21.5 °C 10.3 °C 1014.8 hPa WSW 4.2 km/h 4.7 km/h 49 % 0.0 mm
14:05 21.3 °C 10.2 °C 1014.8 hPa WSW 4.2 km/h 4.7 km/h 49 % 0.0 mm
14:10 20.8 °C 10.6 °C 1014.8 hPa WSW 4.2 km/h 4.7 km/h 52 % 0.0 mm
14:15 20.7 °C 10.5 °C 1014.8 hPa WSW 4.2 km/h 4.7 km/h 52 % 0.0 mm
14:21 20.7 °C 10.8 °C 1014.8 hPa WSW 4.2 km/h 4.7 km/h 53 % 0.0 mm
14:26 20.7 °C 11.1 °C 1014.8 hPa WSW 4.2 km/h 4.7 km/h 54 % 0.0 mm
14:36 21.0 °C 11.6 °C 1014.8 hPa WSW 4.2 km/h 4.7 km/h 55 % 0.0 mm
14:41 20.7 °C 11.9 °C 1014.8 hPa WSW 4.2 km/h 4.7 km/h 57 % 0.0 mm
14:46 20.4 °C 11.8 °C 1014.8 hPa WSW 4.2 km/h 4.7 km/h 58 % 0.0 mm
14:51 20.4 °C 12.1 °C 1014.8 hPa WSW 4.2 km/h 4.7 km/h 59 % 0.0 mm
14:56 20.4 °C 12.1 °C 1014.8 hPa WSW 4.2 km/h 4.7 km/h 59 % 0.0 mm
15:01 20.4 °C 12.4 °C 1014.8 hPa WSW 4.2 km/h 4.7 km/h 60 % 0.0 mm
15:06 20.5 °C 12.2 °C 1014.8 hPa WSW 4.2 km/h 4.7 km/h 59 % 0.0 mm
15:11 20.6 °C 12.8 °C 1014.8 hPa WSW 4.2 km/h 4.7 km/h 61 % 0.0 mm
15:16 20.9 °C 12.8 °C 1013.8 hPa WSW 4.2 km/h 4.7 km/h 60 % 0.0 mm
15:21 20.6 °C 12.8 °C 1013.8 hPa WSW 4.2 km/h 4.7 km/h 61 % 0.0 mm
15:26 20.3 °C 12.6 °C 1013.8 hPa WSW 4.2 km/h 4.7 km/h 61 % 0.0 mm
15:31 20.4 °C 12.6 °C 1013.8 hPa WSW 4.2 km/h 4.7 km/h 61 % 0.0 mm
15:41 20.2 °C 12.7 °C 1013.8 hPa WSW 4.2 km/h 4.7 km/h 62 % 0.0 mm
15:46 20.6 °C 12.8 °C 1013.8 hPa WSW 4.2 km/h 4.7 km/h 61 % 0.0 mm
15:51 20.5 °C 12.9 °C 1013.8 hPa WSW 4.2 km/h 4.7 km/h 62 % 0.0 mm
15:56 20.8 °C 13.0 °C 1013.8 hPa WSW 4.2 km/h 4.7 km/h 61 % 0.0 mm
16:01 20.9 °C 12.8 °C 1013.8 hPa WSW 4.2 km/h 4.7 km/h 60 % 0.0 mm
16:06 20.7 °C 12.7 °C 1013.8 hPa WSW 4.2 km/h 4.7 km/h 60 % 0.0 mm
16:11 20.8 °C 12.7 °C 1013.8 hPa WSW 4.2 km/h 4.7 km/h 60 % 0.0 mm
16:16 21.0 °C 12.9 °C 1013.8 hPa WSW 4.2 km/h 4.7 km/h 60 % 0.0 mm
16:21 21.1 °C 13.1 °C 1013.8 hPa WSW 4.2 km/h 4.7 km/h 60 % 0.0 mm
16:26 20.9 °C 12.8 °C 1013.8 hPa WSW 4.2 km/h 4.7 km/h 60 % 0.0 mm
16:31 20.9 °C 12.8 °C 1013.8 hPa WSW 4.2 km/h 4.7 km/h 60 % 0.0 mm
16:36 21.0 °C 12.9 °C 1013.8 hPa WSW 4.2 km/h 4.7 km/h 60 % 0.0 mm
16:41 21.3 °C 12.9 °C 1013.8 hPa WSW 4.2 km/h 4.7 km/h 59 % 0.0 mm
16:46 21.7 °C 13.3 °C 1013.8 hPa WSW 4.2 km/h 4.7 km/h 59 % 0.0 mm
16:51 21.4 °C 12.8 °C 1013.8 hPa WSW 4.2 km/h 4.7 km/h 58 % 0.0 mm
16:56 21.4 °C 12.8 °C 1013.8 hPa WSW 4.2 km/h 4.7 km/h 58 % 0.0 mm
17:01 21.6 °C 13.2 °C 1013.8 hPa WSW 4.2 km/h 4.7 km/h 59 % 0.0 mm
17:06 22.2 °C 13.3 °C 1013.8 hPa WSW 4.2 km/h 4.7 km/h 57 % 0.0 mm
17:11 22.6 °C 13.1 °C 1013.8 hPa WSW 4.2 km/h 4.7 km/h 55 % 0.0 mm
17:16 22.8 °C 13.3 °C 1013.8 hPa WSW 4.2 km/h 4.7 km/h 55 % 0.0 mm
17:21 22.8 °C 13.3 °C 1013.8 hPa WSW 4.2 km/h 4.7 km/h 55 % 0.0 mm
17:26 22.7 °C 13.2 °C 1013.8 hPa WSW 4.2 km/h 4.7 km/h 55 % 0.0 mm
17:31 22.6 °C 12.8 °C 1013.8 hPa WSW 4.2 km/h 4.7 km/h 54 % 0.0 mm
17:36 22.2 °C 12.7 °C 1013.8 hPa WSW 4.2 km/h 4.7 km/h 55 % 0.0 mm
17:41 22.1 °C 12.9 °C 1013.8 hPa WSW 4.2 km/h 4.7 km/h 56 % 0.0 mm
17:46 22.6 °C 13.4 °C 1013.8 hPa WSW 4.2 km/h 4.7 km/h 56 % 0.0 mm
17:51 22.6 °C 13.4 °C 1013.8 hPa WSW 4.2 km/h 4.7 km/h 56 % 0.0 mm
17:56 22.2 °C 13.3 °C 1013.8 hPa WSW 4.2 km/h 4.7 km/h 57 % 0.0 mm
18:01 22.0 °C 13.1 °C 1013.8 hPa WSW 4.2 km/h 4.7 km/h 57 % 0.0 mm
18:06 22.1 °C 13.2 °C 1013.8 hPa WSW 4.2 km/h 4.7 km/h 57 % 0.0 mm
18:11 22.4 °C 13.4 °C 1013.8 hPa WSW 4.2 km/h 4.7 km/h 57 % 0.0 mm
18:16 23.1 °C 12.4 °C 1013.8 hPa WSW 4.2 km/h 4.7 km/h 51 % 0.0 mm
18:21 23.8 °C 12.7 °C 1013.8 hPa WSW 4.2 km/h 4.7 km/h 50 % 0.0 mm
18:26 24.3 °C 12.6 °C 1013.8 hPa WSW 4.2 km/h 4.7 km/h 48 % 0.0 mm
18:31 24.4 °C 11.0 °C 1013.8 hPa WSW 4.2 km/h 4.7 km/h 43 % 0.0 mm
18:36 24.4 °C 10.7 °C 1013.8 hPa WSW 4.2 km/h 4.7 km/h 42 % 0.0 mm
18:41 24.1 °C 10.0 °C 1013.8 hPa WSW 4.2 km/h 4.7 km/h 41 % 0.0 mm
18:46 24.1 °C 10.0 °C 1013.8 hPa WSW 4.2 km/h 4.7 km/h 41 % 0.0 mm
18:51 23.8 °C 9.8 °C 1013.8 hPa WSW 4.2 km/h 4.7 km/h 41 % 0.0 mm
18:56 23.8 °C 9.8 °C 1013.8 hPa WSW 4.2 km/h 4.7 km/h 41 % 0.0 mm
19:01 23.8 °C 9.8 °C 1013.8 hPa WSW 4.2 km/h 4.7 km/h 41 % 0.0 mm
19:06 23.8 °C 9.8 °C 1013.8 hPa WSW 4.2 km/h 4.7 km/h 41 % 0.0 mm
19:11 23.6 °C 9.6 °C 1013.8 hPa SSW 12.6 km/h 12.6 km/h 41 % 0.0 mm
19:15 18.5 °C 9.3 °C 1017.8 hPa SW 4.8 km/h 6.4 km/h 55 % 0.0 mm
19:16 23.4 °C 9.4 °C 1013.8 hPa SW 15.6 km/h 15.6 km/h 41 % 0.0 mm
19:21 23.5 °C 9.5 °C 1013.8 hPa SSW 3.7 km/h 4.7 km/h 41 % 0.0 mm
19:25 18.5 °C 9.8 °C 1017.8 hPa SW 4.8 km/h 6.4 km/h 57 % 0.0 mm
19:26 23.3 °C 9.3 °C 1013.8 hPa SSW 9.3 km/h 9.3 km/h 41 % 0.0 mm
19:31 23.3 °C 9.3 °C 1013.8 hPa WNW 9.5 km/h 9.5 km/h 41 % 0.0 mm
19:35 18.5 °C 10.3 °C 1017.8 hPa SW 4.8 km/h 6.4 km/h 59 % 0.0 mm
19:36 23.1 °C 9.1 °C 1013.8 hPa SSW 3.9 km/h 11.4 km/h 41 % 0.0 mm
19:41 22.8 °C 9.2 °C 1013.8 hPa SW 7.4 km/h 10.8 km/h 42 % 0.0 mm
19:45 18.5 °C 10.6 °C 1017.8 hPa SW 4.8 km/h 6.4 km/h 60 % 0.0 mm
19:46 22.7 °C 9.1 °C 1013.8 hPa SW 14.8 km/h 14.8 km/h 42 % 0.0 mm
19:51 22.6 °C 9.1 °C 1013.8 hPa SW 7.4 km/h 7.4 km/h 42 % 0.0 mm
19:55 18.5 °C 11.1 °C 1017.8 hPa SW 4.8 km/h 6.4 km/h 62 % 0.0 mm
19:56 22.6 °C 9.1 °C 1013.8 hPa SW 10.3 km/h 10.3 km/h 42 % 0.0 mm
20:01 22.5 °C 8.9 °C 1013.8 hPa WSW 10.0 km/h 10.0 km/h 42 % 0.0 mm
20:05 18.1 °C 11.7 °C 1017.8 hPa SW 4.8 km/h 6.4 km/h 66 % 0.0 mm
20:06 22.5 °C 8.9 °C 1013.8 hPa SSW 3.7 km/h 10.3 km/h 42 % 0.0 mm
20:11 22.3 °C 8.8 °C 1013.8 hPa SSW 5.6 km/h 5.6 km/h 42 % 0.0 mm
20:15 17.9 °C 11.7 °C 1017.8 hPa SW 4.8 km/h 6.4 km/h 67 % 0.0 mm
20:16 22.3 °C 8.8 °C 1013.8 hPa SSW 5.6 km/h 5.6 km/h 42 % 0.0 mm
20:21 22.2 °C 9.0 °C 1013.8 hPa SSW 5.6 km/h 5.6 km/h 43 % 0.0 mm
20:25 17.8 °C 11.6 °C 1017.8 hPa SW 4.8 km/h 6.4 km/h 67 % 0.0 mm
20:26 21.8 °C 8.7 °C 1013.8 hPa SSW 5.6 km/h 5.6 km/h 43 % 0.0 mm
20:31 21.6 °C 8.8 °C 1012.8 hPa SSW 5.6 km/h 5.6 km/h 44 % 0.0 mm
20:35 17.7 °C 11.5 °C 1017.8 hPa Calm     67 % 0.0 mm
20:36 21.4 °C 8.6 °C 1012.8 hPa SSW 5.6 km/h 5.6 km/h 44 % 0.0 mm
20:41 21.3 °C 8.9 °C 1012.8 hPa SSW 5.6 km/h 5.6 km/h 45 % 0.0 mm
20:45 17.6 °C 11.4 °C 1017.8 hPa Calm     67 % 0.0 mm
20:46 21.3 °C 8.9 °C 1013.8 hPa SSW 5.6 km/h 5.6 km/h 45 % 0.0 mm
20:51 21.2 °C 8.8 °C 1013.8 hPa SSW 5.6 km/h 5.6 km/h 45 % 0.0 mm
20:55 17.6 °C 11.2 °C 1017.8 hPa Calm     66 % 0.0 mm
20:56 21.1 °C 8.7 °C 1013.8 hPa SSW 5.6 km/h 5.6 km/h 45 % 0.0 mm
21:01 21.0 °C 8.6 °C 1013.8 hPa SSW 5.6 km/h 5.6 km/h 45 % 0.0 mm
21:05 17.6 °C 11.2 °C 1017.8 hPa Calm     66 % 0.0 mm
21:06 20.8 °C 8.8 °C 1013.8 hPa SSW 5.6 km/h 5.6 km/h 46 % 0.0 mm
21:11 20.7 °C 8.7 °C 1013.8 hPa SSW 5.6 km/h 5.6 km/h 46 % 0.0 mm
21:15 17.4 °C 11.2 °C 1017.8 hPa Calm     67 % 0.0 mm
21:16 20.5 °C 8.8 °C 1013.8 hPa SSW 5.6 km/h 5.6 km/h 47 % 0.0 mm
21:21 20.5 °C 8.5 °C 1013.8 hPa SSW 5.6 km/h 5.6 km/h 46 % 0.0 mm
21:25 17.4 °C 11.2 °C 1017.8 hPa WSW 1.6 km/h 1.6 km/h 67 % 0.0 mm
21:26 20.4 °C 8.4 °C 1013.8 hPa SSW 5.6 km/h 5.6 km/h 46 % 0.0 mm
21:31 20.3 °C 8.3 °C 1013.8 hPa SSW 5.6 km/h 5.6 km/h 46 % 0.0 mm
21:35 17.4 °C 11.0 °C 1017.8 hPa Calm     66 % 0.0 mm
21:36 20.2 °C 8.2 °C 1013.8 hPa SSW 5.6 km/h 5.6 km/h 46 % 0.0 mm
21:41 20.1 °C 8.4 °C 1013.8 hPa SSW 5.6 km/h 5.6 km/h 47 % 0.0 mm
21:45 17.5 °C 10.8 °C 1017.8 hPa Calm     65 % 0.0 mm
21:46 20.0 °C 8.3 °C 1014.8 hPa SSW 5.6 km/h 5.6 km/h 47 % 0.0 mm
21:51 20.0 °C 8.7 °C 1014.8 hPa SSW 5.6 km/h 5.6 km/h 48 % 0.0 mm
21:55 17.6 °C 10.4 °C 1017.8 hPa Calm     63 % 0.0 mm
21:56 19.9 °C 8.6 °C 1014.8 hPa SSW 5.6 km/h 5.6 km/h 48 % 0.0 mm
22:01 19.8 °C 8.8 °C 1014.8 hPa SSW 5.6 km/h 5.6 km/h 49 % 0.0 mm
22:05 17.7 °C 10.3 °C 1018.8 hPa Calm     62 % 0.0 mm
22:06 19.7 °C 8.7 °C 1014.8 hPa SSW 5.6 km/h 5.6 km/h 49 % 0.0 mm
22:11 19.6 °C 8.6 °C 1014.8 hPa SSW 5.6 km/h 5.6 km/h 49 % 0.0 mm
22:16 19.6 °C 8.6 °C 1015.8 hPa SSW 5.6 km/h 5.6 km/h 49 % 0.0 mm
22:21 19.5 °C 8.5 °C 1015.8 hPa SSW 5.6 km/h 5.6 km/h 49 % 0.0 mm
22:25 17.6 °C 10.0 °C 1017.8 hPa Calm     61 % 0.0 mm
22:26 19.4 °C 8.4 °C 1015.8 hPa SSW 5.6 km/h 5.6 km/h 49 % 0.0 mm
22:31 19.3 °C 8.6 °C 1015.8 hPa SSW 5.6 km/h 5.6 km/h 50 % 0.0 mm
22:35 17.6 °C 9.7 °C 1017.8 hPa Calm     60 % 0.0 mm
22:36 19.3 °C 8.6 °C 1015.8 hPa SSW 5.6 km/h 5.6 km/h 50 % 0.0 mm
22:41 19.2 °C 8.5 °C 1015.8 hPa SSW 5.6 km/h 5.6 km/h 50 % 0.0 mm
22:45 17.6 °C 9.7 °C 1017.8 hPa Calm     60 % 0.0 mm
22:46 19.1 °C 8.4 °C 1015.8 hPa SSW 5.6 km/h 5.6 km/h 50 % 0.0 mm
22:51 19.0 °C 8.6 °C 1015.8 hPa SSW 5.6 km/h 5.6 km/h 51 % 0.0 mm
22:55 17.9 °C 9.5 °C 1017.8 hPa Calm     58 % 0.0 mm
22:56 18.9 °C 8.8 °C 1015.8 hPa SSW 5.6 km/h 5.6 km/h 52 % 0.0 mm
23:01 18.8 °C 8.7 °C 1015.8 hPa SSW 5.6 km/h 5.6 km/h 52 % 0.0 mm
23:06 18.8 °C 8.7 °C 1015.8 hPa SSW 5.6 km/h 5.6 km/h 52 % 0.0 mm
23:11 18.7 °C 8.6 °C 1015.8 hPa SSW 5.6 km/h 5.6 km/h 52 % 0.0 mm
23:15 17.6 °C 9.0 °C 1017.8 hPa Calm     57 % 0.0 mm
23:16 18.6 °C 8.8 °C 1015.8 hPa SSW 5.6 km/h 5.6 km/h 53 % 0.0 mm
23:21 18.6 °C 8.8 °C 1015.8 hPa SSW 5.6 km/h 5.6 km/h 53 % 0.0 mm
23:25 17.6 °C 9.0 °C 1017.8 hPa Calm     57 % 0.0 mm
23:26 18.7 °C 8.9 °C 1015.8 hPa SSW 5.6 km/h 5.6 km/h 53 % 0.0 mm
23:31 18.7 °C 8.9 °C 1015.8 hPa SSW 5.6 km/h 5.6 km/h 53 % 0.0 mm
23:35 17.5 °C 8.9 °C 1017.8 hPa Calm     57 % 0.0 mm
23:36 18.6 °C 8.8 °C 1015.8 hPa SSW 5.6 km/h 5.6 km/h 53 % 0.0 mm
23:41 18.6 °C 8.8 °C 1015.8 hPa SSW 5.6 km/h 5.6 km/h 53 % 0.0 mm
23:45 17.5 °C 8.9 °C 1017.8 hPa Calm     57 % 0.0 mm
23:46 18.5 °C 9.0 °C 1015.8 hPa SSW 5.6 km/h 5.6 km/h 54 % 0.0 mm
23:51 18.5 °C 9.0 °C 1015.8 hPa SSW 5.6 km/h 5.6 km/h 54 % 0.0 mm
23:55 17.4 °C 9.1 °C 1017.8 hPa Calm     58 % 0.0 mm
23:56 18.5 °C 9.0 °C 1015.8 hPa SSW 5.6 km/h 5.6 km/h 54 % 0.0 mm
Meteo Sesrovires
Elogis d' Weather Underground - 3.75 mb

Guio original per  Jim McMurry - jmcmurry@mwt.net Adaptat per a la plantilla per  Wim van der Kuil - Leuven-Template.eu

Trobareu la nostra informacio del temps tambe a:

Weather Underground

AWEKAS